Kadena Air Base
RODN : now visible

Airfield :











YOU CAN JOIN US ON...

 
LOGIN :

Register | Disclaimer

   EN    FR    IT 

 









Legend :    VFR   Marginal VFR   IFR   Intensive IFR   Very Intensive IFR
Visi :
Ceiling :
>= 8 km
>= 3000ft
5 to 8 km
1000 to 3000 ft
1500m to 5 km
500 to 1000 ft
800 to 1500m
200 to 500 ft
< 800m
< 200 ft
Symbols :   Thunderstorms  Fog  Heavy snow  Heavy precipitations  Wind > 20 kt






- Airport Elevation : 143 ft
- IATA code : DNA


RODN - Kadena Air Base

CURRENT METAR :
  • 221526Z AUTO 06012KT 5SM +RA BR FEW013 21/20 A3001 RMK AO2 PRESFR SLP168 $

EXPIRED METARs :
  • 221506Z AUTO 07008KT 3SM +RA BR OVC031 21/20 A3004 RMK AO2 SLP178 $
  • 221456Z AUTO 03006KT 2 1/2SM +RA BR OVC028 21/20 A3004 RMK AO2 VIS 1 3/4V2 1/2 CIG 027 RWY23 SLP178 P0125 60352 T02100201 402680210 50025 $
  • 221427Z AUTO 04006G17KT 1 3/4SM +RA BR OVC018 21/20 A3004 RMK AO2 VIS 1 1/4V1 3/4 VIS 3/4 RWY23 CIG 013 RWY23 SLP178 $
  • 221417Z AUTO 34009KT 1 1/8SM R05/6000FT +RA BR OVC016 21/20 A3003 RMK AO2 VIS 1/2 RWY23 CIG 010V016 CIG 009 RWY23 SLP175 $
  • 221356Z AUTO 36008KT 1/2SM R05/1600V3500FT +RA FG VV009 21/21 A3005 RMK AO2 PK WND 06032/32 DZB10E13RAB13 SLP182 P0208 T02140205 $
  • 221342Z AUTO 05011G32KT 3/8SM R05/2000V2400FT +RA FG VV009 22/21 A3005 RMK AO2 DZB10E13RAB13 CIG 008 RWY23 PRESRR SLP182 $
  • 221321Z AUTO 06015G29KT 8SM RA BKN008 OVC015 23/22 A2999 RMK AO2 DZB10E13RAB13 CIG 008V015 CIG 007 RWY23 SLP161 $
  • 221256Z AUTO 10010KT 10SM OVC013 26/24 A2999 RMK AO2 RAB01E18DZB18E43DZB46E55 CIG 009 RWY23 SLP161 P0019 T02550241 $

TAF AMD TAF RODN
Valid from the 22 at 14:00 until the 23 at 14:00 UTC


221403Z 2214/2314 05009KT 0800 +RA FG OVC009 QNH2995INS
TEMPO 2214/2216 06020G30KT 0600 VCTS OVC006CB
BECMG 2222/2223 11012KT 9999 NSW BKN040 BKN090 QNH2995INS
TEMPO 2223/2304 8000 SHRA TX27/2304Z TN20/2216Z



MET'MAP, your aeronautical weather chart ! - Copyright ORBIFLY December 2007 - Disclaimer

ORBIFLY MET'MAP TEAM :

Programming & Development : Alexandra Zaïnal
Concept & Development : Baudouin d'Aumeries
Co-Development & Prog : Marc-Olivier Méhu
Technical & hardware support : Manuel Goepfert

Contact : metmap@orbifly.com




SOURCES & CREDITS :

   NOAA       Earth
Advisory